createdAt,value
2023-03-04T00:00:46.304Z,97683.59
2023-03-04T00:03:47.806Z,97687.44
2023-03-04T00:06:49.328Z,97687.53
2023-03-04T00:09:50.774Z,97677.50
2023-03-04T00:12:52.223Z,97686.47
2023-03-04T00:15:53.778Z,97684.03
2023-03-04T00:18:56.687Z,97685.72
2023-03-04T00:21:58.307Z,97692.78
2023-03-04T00:24:59.754Z,97689.75
2023-03-04T00:28:01.426Z,97692.06
2023-03-04T00:31:02.860Z,97684.28
2023-03-04T00:34:04.389Z,97683.72
2023-03-04T00:37:05.882Z,97695.69
2023-03-04T00:40:08.453Z,97695.31
2023-03-04T00:43:09.926Z,97699.03
2023-03-04T00:46:11.429Z,97702.84
2023-03-04T00:49:13.018Z,97699.09
2023-03-04T00:52:14.477Z,97695.41
2023-03-04T00:55:16.152Z,97699.63
2023-03-04T00:58:17.602Z,97689.25
2023-03-04T01:01:19.122Z,97691.28
2023-03-04T01:04:20.596Z,97694.22
2023-03-04T01:07:22.061Z,97690.88
2023-03-04T01:10:23.532Z,97677.34
2023-03-04T01:13:25.090Z,97686.63
2023-03-04T01:16:26.569Z,97685.16
2023-03-04T01:19:29.066Z,97672.84
2023-03-04T01:22:30.591Z,97684.00
2023-03-04T01:25:32.030Z,97681.41
2023-03-04T01:28:35.826Z,97686.59
2023-03-04T01:31:37.292Z,97682.53
2023-03-04T01:34:38.727Z,97677.13
2023-03-04T01:37:40.496Z,97669.84
2023-03-04T01:40:41.933Z,97673.47
2023-03-04T01:43:45.032Z,97674.47
2023-03-04T01:46:50.688Z,97671.22
2023-03-04T01:49:55.591Z,97667.06
2023-03-04T01:52:57.193Z,97663.91
2023-03-04T01:56:10.957Z,97660.41
2023-03-04T01:59:16.829Z,97652.44
2023-03-04T02:02:18.294Z,97656.72
2023-03-04T02:05:22.213Z,97653.47
2023-03-04T02:08:24.895Z,97653.38
2023-03-04T02:11:26.854Z,97657.63
2023-03-04T02:14:28.642Z,97652.72
2023-03-04T02:17:32.772Z,97653.72
2023-03-04T02:20:52.865Z,97652.16
2023-03-04T02:24:13.476Z,97655.88
2023-03-04T02:27:14.955Z,97654.69
2023-03-04T02:30:17.979Z,97647.44
2023-03-04T02:33:19.968Z,97656.53
2023-03-04T02:36:21.968Z,97653.00
2023-03-04T02:39:29.704Z,97645.88
2023-03-04T02:42:31.347Z,97650.31
2023-03-04T02:45:44.959Z,97644.13
2023-03-04T02:48:46.531Z,97649.88
2023-03-04T02:51:51.618Z,97642.44
2023-03-04T02:54:53.041Z,97653.47
2023-03-04T02:57:54.538Z,97655.53
2023-03-04T03:00:55.991Z,97658.00
2023-03-04T03:03:59.240Z,97657.19
2023-03-04T03:07:00.926Z,97651.50
2023-03-04T03:10:02.542Z,97655.06
2023-03-04T03:13:04.923Z,97652.53
2023-03-04T03:16:06.677Z,97653.91
2023-03-04T03:19:08.109Z,97656.50
2023-03-04T03:22:10.830Z,97652.53
2023-03-04T03:25:12.908Z,97664.00
2023-03-04T03:28:14.323Z,97663.16
2023-03-04T03:31:15.817Z,97654.88
2023-03-04T03:34:21.322Z,97657.97
2023-03-04T03:37:23.301Z,97656.94
2023-03-04T03:40:24.704Z,97663.25
2023-03-04T03:43:26.227Z,97658.13
2023-03-04T03:46:27.667Z,97659.53
2023-03-04T03:49:29.094Z,97667.31
2023-03-04T03:52:30.551Z,97654.66
2023-03-04T03:55:32.002Z,97656.69
2023-03-04T03:58:33.377Z,97656.69
2023-03-04T04:01:34.812Z,97659.63
2023-03-04T04:04:36.167Z,97666.84
2023-03-04T04:07:37.581Z,97669.44
2023-03-04T04:10:38.989Z,97665.34
2023-03-04T04:13:40.367Z,97660.53
2023-03-04T04:16:42.122Z,97662.47
2023-03-04T04:19:43.598Z,97668.88
2023-03-04T04:22:45.027Z,97672.66
2023-03-04T04:25:46.472Z,97670.31
2023-03-04T04:28:48.048Z,97667.88
2023-03-04T04:31:49.489Z,97660.31
2023-03-04T04:34:50.846Z,97666.50
2023-03-04T04:37:52.204Z,97665.66
2023-03-04T04:40:53.690Z,97669.94
2023-03-04T04:43:55.229Z,97668.63
2023-03-04T04:46:56.628Z,97666.19
2023-03-04T04:49:58.115Z,97672.19
2023-03-04T04:52:59.646Z,97664.34
2023-03-04T04:56:01.010Z,97671.44
2023-03-04T04:59:04.324Z,97672.78
2023-03-04T05:02:05.719Z,97674.13
2023-03-04T05:05:07.378Z,97667.38
2023-03-04T05:08:08.729Z,97668.19
2023-03-04T05:11:10.098Z,97665.53
2023-03-04T05:14:11.441Z,97665.44
2023-03-04T05:17:12.874Z,97661.75
2023-03-04T05:20:14.295Z,97661.84
2023-03-04T05:23:15.668Z,97658.69
2023-03-04T05:26:17.446Z,97666.13
2023-03-04T05:29:18.880Z,97669.38
2023-03-04T05:32:20.291Z,97670.31
2023-03-04T05:35:21.699Z,97673.00
2023-03-04T05:38:23.084Z,97677.59
2023-03-04T05:41:24.571Z,97668.66
2023-03-04T05:44:26.077Z,97667.31
2023-03-04T05:47:27.477Z,97668.66
2023-03-04T05:50:29.218Z,97658.88
2023-03-04T05:53:30.723Z,97668.13
2023-03-04T05:56:33.413Z,97668.13
2023-03-04T05:59:34.781Z,97675.22
2023-03-04T06:02:36.709Z,97669.97
2023-03-04T06:05:38.146Z,97666.88
2023-03-04T06:08:39.563Z,97683.94
2023-03-04T06:11:41.046Z,97679.66
2023-03-04T06:14:42.471Z,97680.69
2023-03-04T06:17:43.931Z,97671.81
2023-03-04T06:20:45.430Z,97678.63
2023-03-04T06:23:47.061Z,97693.63
2023-03-04T06:26:48.436Z,97683.28
2023-03-04T06:29:49.823Z,97688.25
2023-03-04T06:32:51.263Z,97698.09
2023-03-04T06:35:56.154Z,97692.84
2023-03-04T06:38:57.583Z,97702.09
2023-03-04T06:41:58.985Z,97695.94
2023-03-04T06:45:00.369Z,97703.25
2023-03-04T06:48:02.183Z,97697.63
2023-03-04T06:51:07.367Z,97698.03
2023-03-04T06:54:09.390Z,97699.53
2023-03-04T06:57:10.902Z,97703.16
2023-03-04T07:00:12.573Z,97709.41
2023-03-04T07:03:14.055Z,97711.81
2023-03-04T07:06:16.989Z,97719.22
2023-03-04T07:09:18.778Z,97720.91
2023-03-04T07:12:20.187Z,97725.09
2023-03-04T07:15:21.545Z,97730.56
2023-03-04T07:18:22.905Z,97723.19
2023-03-04T07:21:24.746Z,97730.41
2023-03-04T07:24:26.115Z,97736.59
2023-03-04T07:27:27.563Z,97730.47
2023-03-04T07:30:28.986Z,97736.88
2023-03-04T07:33:30.432Z,97736.66
2023-03-04T07:36:32.280Z,97736.09
2023-03-04T07:39:33.724Z,97737.75
2023-03-04T07:42:35.177Z,97728.84
2023-03-04T07:45:41.693Z,97736.91
2023-03-04T07:48:43.169Z,97745.44
2023-03-04T07:51:44.565Z,97750.16
2023-03-04T07:54:45.958Z,97747.84
2023-03-04T07:57:47.737Z,97751.72
2023-03-04T08:00:49.150Z,97752.13
2023-03-04T08:03:50.546Z,97753.50
2023-03-04T08:06:52.230Z,97760.38
2023-03-04T08:09:53.621Z,97760.97
2023-03-04T08:12:55.040Z,97762.69
2023-03-04T08:15:56.508Z,97762.72
2023-03-04T08:18:58.946Z,97755.91
2023-03-04T08:22:00.369Z,97767.97
2023-03-04T08:25:01.934Z,97758.72
2023-03-04T08:28:03.401Z,97757.66
2023-03-04T08:31:04.947Z,97758.06
2023-03-04T08:34:07.577Z,97753.63
2023-03-04T08:37:08.948Z,97751.78
2023-03-04T08:40:10.817Z,97753.81
2023-03-04T08:43:12.233Z,97759.69
2023-03-04T08:46:13.718Z,97766.47
2023-03-04T08:49:15.218Z,97762.84
2023-03-04T08:52:16.615Z,97773.06
2023-03-04T08:55:18.061Z,97768.88
2023-03-04T08:58:19.837Z,97767.69
2023-03-04T09:01:21.331Z,97789.09
2023-03-04T09:04:22.917Z,97783.06
2023-03-04T09:07:24.389Z,97782.38
2023-03-04T09:10:25.787Z,97790.00
2023-03-04T09:13:29.479Z,97785.59
2023-03-04T09:16:30.977Z,97788.03
2023-03-04T09:19:32.398Z,97785.19
2023-03-04T09:22:33.772Z,97785.81
2023-03-04T09:25:35.534Z,97787.56
2023-03-04T09:28:36.986Z,97785.38
2023-03-04T09:31:38.635Z,97786.94
2023-03-04T09:34:40.246Z,97791.38
2023-03-04T09:37:41.951Z,97788.63
2023-03-04T09:40:45.489Z,97783.75
2023-03-04T09:43:47.568Z,97781.63
2023-03-04T09:46:49.889Z,97783.50
2023-03-04T09:49:56.170Z,97786.13
2023-03-04T09:53:06.287Z,97784.44
2023-03-04T09:56:07.843Z,97780.28
2023-03-04T09:59:24.063Z,97779.44
2023-03-04T10:02:44.315Z,97770.03
2023-03-04T10:05:53.272Z,97782.53
2023-03-04T10:09:13.733Z,97777.56
2023-03-04T10:12:17.305Z,97779.19
2023-03-04T10:15:48.125Z,97779.25
2023-03-04T10:19:12.386Z,97772.59
2023-03-04T10:22:20.391Z,97770.94
2023-03-04T10:25:21.805Z,97768.44
2023-03-04T10:28:27.547Z,97770.94
2023-03-04T10:31:35.306Z,97774.72
2023-03-04T10:34:36.716Z,97775.81
2023-03-04T10:37:45.664Z,97766.78
2023-03-04T10:40:47.082Z,97764.16
2023-03-04T10:44:07.114Z,97768.22
2023-03-04T10:47:14.465Z,97759.91
2023-03-04T10:50:22.060Z,97768.78
2023-03-04T10:53:33.271Z,97757.28
2023-03-04T10:56:37.537Z,97764.66
2023-03-04T10:59:41.967Z,97756.06
2023-03-04T11:02:43.705Z,97759.97
2023-03-04T11:05:45.124Z,97753.59
2023-03-04T11:08:53.647Z,97754.53
2023-03-04T11:11:55.961Z,97756.06
2023-03-04T11:14:57.609Z,97755.50
2023-03-04T11:18:09.426Z,97753.31
2023-03-04T11:21:16.768Z,97750.69
2023-03-04T11:24:30.693Z,97739.06
2023-03-04T11:27:38.339Z,97744.78
2023-03-04T11:30:44.822Z,97729.13
2023-03-04T11:34:24.616Z,97723.75
2023-03-04T11:37:37.622Z,97721.97
2023-03-04T11:40:40.994Z,97719.69
2023-03-04T11:43:44.621Z,97719.56
2023-03-04T11:46:58.187Z,97714.47
2023-03-04T11:50:20.207Z,97713.41
2023-03-04T11:53:39.589Z,97708.09
2023-03-04T11:56:45.518Z,97695.88
2023-03-04T11:59:54.340Z,97690.59
2023-03-04T12:03:04.517Z,97689.72
2023-03-04T12:06:22.151Z,97682.84
2023-03-04T12:09:42.397Z,97679.16
2023-03-04T12:13:02.221Z,97668.69
2023-03-04T12:16:24.194Z,97667.53
2023-03-04T12:19:44.090Z,97666.50
2023-03-04T12:22:46.637Z,97659.81
2023-03-04T12:26:17.517Z,97648.16
2023-03-04T12:29:25.001Z,97643.31
2023-03-04T12:32:29.137Z,97648.06
2023-03-04T12:35:33.428Z,97641.69
2023-03-04T12:38:43.054Z,97631.41
2023-03-04T12:41:44.494Z,97635.44
2023-03-04T12:44:58.644Z,97633.34
2023-03-04T12:48:00.085Z,97629.84
2023-03-04T12:51:21.772Z,97627.09
2023-03-04T12:54:34.825Z,97623.00
2023-03-04T12:57:36.347Z,97621.78
2023-03-04T13:00:53.146Z,97618.63
2023-03-04T13:04:09.715Z,97612.13
2023-03-04T13:07:18.399Z,97614.31
2023-03-04T13:10:23.647Z,97610.00
2023-03-04T13:13:42.157Z,97601.97
2023-03-04T13:16:50.853Z,97610.53
2023-03-04T13:20:11.261Z,97599.63
2023-03-04T13:23:25.777Z,97593.69
2023-03-04T13:26:33.066Z,97591.75
2023-03-04T13:29:34.562Z,97590.69
2023-03-04T13:32:38.391Z,97591.81
2023-03-04T13:35:49.096Z,97589.88
2023-03-04T13:38:57.863Z,97593.59
2023-03-04T13:41:59.580Z,97582.53
2023-03-04T13:45:01.236Z,97580.44
2023-03-04T13:48:21.479Z,97580.25
2023-03-04T13:51:30.025Z,97576.19
2023-03-04T13:54:32.580Z,97578.56
2023-03-04T13:57:36.281Z,97578.97
2023-03-04T14:00:44.316Z,97574.38
2023-03-04T14:03:45.747Z,97575.56
2023-03-04T14:06:51.716Z,97569.44
2023-03-04T14:09:54.551Z,97569.28
2023-03-04T14:12:57.873Z,97569.97
2023-03-04T14:15:59.663Z,97569.81
2023-03-04T14:19:02.478Z,97563.72
2023-03-04T14:22:04.297Z,97553.84
2023-03-04T14:25:19.451Z,97555.31
2023-03-04T14:28:20.926Z,97545.53
2023-03-04T14:31:23.866Z,97549.22
2023-03-04T14:34:28.812Z,97545.84
2023-03-04T14:37:38.926Z,97541.94
2023-03-04T14:40:42.528Z,97542.16
2023-03-04T14:43:48.248Z,97539.53
2023-03-04T14:47:06.448Z,97529.06
2023-03-04T14:50:17.716Z,97535.13
2023-03-04T14:53:20.550Z,97532.28
2023-03-04T14:56:29.413Z,97529.66
2023-03-04T14:59:34.999Z,97533.66
2023-03-04T15:02:38.632Z,97536.09
2023-03-04T15:05:40.066Z,97533.97
2023-03-04T15:08:41.945Z,97526.22
2023-03-04T15:11:48.525Z,97528.78
2023-03-04T15:14:52.384Z,97530.75
2023-03-04T15:18:01.057Z,97527.06
2023-03-04T15:21:25.285Z,97521.59
2023-03-04T15:24:26.666Z,97519.97
2023-03-04T15:27:29.530Z,97523.63
2023-03-04T15:30:33.059Z,97520.06
2023-03-04T15:33:36.010Z,97523.72
2023-03-04T15:36:37.602Z,97511.34
2023-03-04T15:39:38.973Z,97522.91
2023-03-04T15:42:40.640Z,97522.41
2023-03-04T15:45:42.150Z,97525.06
2023-03-04T15:48:43.569Z,97518.47
2023-03-04T15:51:45.037Z,97521.16
2023-03-04T15:54:47.908Z,97520.81
2023-03-04T15:57:52.951Z,97524.47
2023-03-04T16:00:54.339Z,97522.47
2023-03-04T16:03:55.889Z,97530.56
2023-03-04T16:06:59.389Z,97531.03
2023-03-04T16:10:05.406Z,97525.84
2023-03-04T16:13:12.584Z,97529.16
2023-03-04T16:16:14.484Z,97522.72
2023-03-04T16:19:15.887Z,97527.72
2023-03-04T16:22:19.234Z,97523.28
2023-03-04T16:25:20.999Z,97531.84
2023-03-04T16:28:23.041Z,97524.97
2023-03-04T16:31:24.406Z,97531.88
2023-03-04T16:34:25.773Z,97525.59
2023-03-04T16:37:27.125Z,97529.38
2023-03-04T16:40:30.393Z,97519.75
2023-03-04T16:43:31.815Z,97525.47
2023-03-04T16:46:33.265Z,97527.84
2023-03-04T16:49:34.778Z,97533.53
2023-03-04T16:52:36.593Z,97533.94
2023-03-04T16:55:38.019Z,97530.50
2023-03-04T16:58:39.519Z,97540.81
2023-03-04T17:01:40.977Z,97537.91
2023-03-04T17:04:42.682Z,97545.47
2023-03-04T17:07:44.098Z,97543.88
2023-03-04T17:10:45.450Z,97548.78
2023-03-04T17:13:46.937Z,97550.66
2023-03-04T17:16:48.488Z,97553.38
2023-03-04T17:19:49.994Z,97567.03
2023-03-04T17:22:52.441Z,97570.81
2023-03-04T17:25:57.608Z,97569.47
2023-03-04T17:28:58.990Z,97574.75
2023-03-04T17:32:00.382Z,97577.19
2023-03-04T17:35:03.081Z,97574.56
2023-03-04T17:38:04.474Z,97583.28
2023-03-04T17:41:07.473Z,97587.22
2023-03-04T17:44:10.404Z,97591.41
2023-03-04T17:47:11.899Z,97594.63
2023-03-04T17:50:13.478Z,97589.44
2023-03-04T17:53:14.911Z,97587.56
2023-03-04T17:56:16.287Z,97593.63
2023-03-04T17:59:18.834Z,97601.94
2023-03-04T18:02:20.287Z,97599.22
2023-03-04T18:05:21.897Z,97608.13
2023-03-04T18:08:24.134Z,97597.22
2023-03-04T18:11:26.738Z,97601.84
2023-03-04T18:14:28.115Z,97598.63
2023-03-04T18:17:29.612Z,97600.66
2023-03-04T18:20:31.147Z,97610.72
2023-03-04T18:23:32.883Z,97608.81
2023-03-04T18:26:34.478Z,97611.88
2023-03-04T18:29:35.935Z,97606.28
2023-03-04T18:32:51.059Z,97612.63
2023-03-04T18:36:03.593Z,97610.88
2023-03-04T18:39:07.238Z,97613.56
2023-03-04T18:42:08.686Z,97620.69
2023-03-04T18:45:11.329Z,97620.44
2023-03-04T18:48:12.829Z,97618.78
2023-03-04T18:51:14.254Z,97623.50
2023-03-04T18:54:15.641Z,97627.19
2023-03-04T18:57:17.025Z,97620.34
2023-03-04T19:00:19.874Z,97626.50
2023-03-04T19:03:21.461Z,97627.72
2023-03-04T19:06:24.879Z,97628.56
2023-03-04T19:09:26.709Z,97630.69
2023-03-04T19:12:28.191Z,97633.03
2023-03-04T19:15:29.605Z,97635.22
2023-03-04T19:18:31.042Z,97642.53
2023-03-04T19:21:32.591Z,97651.56
2023-03-04T19:24:34.244Z,97637.97
2023-03-04T19:27:35.727Z,97645.78
2023-03-04T19:30:37.884Z,97646.50
2023-03-04T19:33:39.832Z,97642.56
2023-03-04T19:36:41.223Z,97641.97
2023-03-04T19:39:46.059Z,97642.44
2023-03-04T19:42:47.509Z,97641.94
2023-03-04T19:45:55.811Z,97641.00
2023-03-04T19:48:57.213Z,97645.41
2023-03-04T19:51:58.749Z,97643.75
2023-03-04T19:55:00.123Z,97639.38
2023-03-04T19:58:01.464Z,97642.31
2023-03-04T20:01:03.091Z,97636.72
2023-03-04T20:04:11.671Z,97630.69
2023-03-04T20:07:13.206Z,97627.34
2023-03-04T20:10:15.491Z,97628.78
2023-03-04T20:13:16.908Z,97627.13
2023-03-04T20:16:18.280Z,97634.56
2023-03-04T20:19:19.682Z,97633.09
2023-03-04T20:22:21.138Z,97636.56
2023-03-04T20:25:22.952Z,97635.81
2023-03-04T20:28:25.055Z,97628.66
2023-03-04T20:31:31.480Z,97629.09
2023-03-04T20:34:32.924Z,97639.84
2023-03-04T20:37:36.080Z,97634.66
2023-03-04T20:40:37.881Z,97631.94
2023-03-04T20:43:39.620Z,97634.16
2023-03-04T20:46:44.930Z,97634.78
2023-03-04T20:49:46.349Z,97630.84
2023-03-04T20:52:48.172Z,97623.44
2023-03-04T20:55:49.647Z,97636.47
2023-03-04T20:58:52.336Z,97633.16
2023-03-04T21:01:54.043Z,97635.31
2023-03-04T21:04:55.662Z,97629.81
2023-03-04T21:07:58.170Z,97629.63
2023-03-04T21:10:59.675Z,97626.69
2023-03-04T21:14:01.318Z,97630.88
2023-03-04T21:17:04.057Z,97630.88
2023-03-04T21:20:05.747Z,97631.59
2023-03-04T21:23:07.219Z,97630.25
2023-03-04T21:26:08.733Z,97626.69
2023-03-04T21:29:10.183Z,97628.03
2023-03-04T21:32:24.711Z,97627.53
2023-03-04T21:35:26.671Z,97629.94
2023-03-04T21:38:28.147Z,97621.09
2023-03-04T21:41:47.996Z,97612.13
2023-03-04T21:44:51.427Z,97604.63
2023-03-04T21:47:53.147Z,97609.00
2023-03-04T21:50:54.544Z,97602.97
2023-03-04T21:53:55.984Z,97596.31
2023-03-04T21:56:57.406Z,97592.16
2023-03-04T21:59:58.782Z,97599.84
2023-03-04T22:03:00.191Z,97589.56
2023-03-04T22:06:03.586Z,97599.03
2023-03-04T22:09:04.959Z,97594.75
2023-03-04T22:12:06.499Z,97596.44
2023-03-04T22:15:09.066Z,97599.44
2023-03-04T22:18:12.000Z,97597.56
2023-03-04T22:21:14.618Z,97589.88
2023-03-04T22:24:16.025Z,97596.81
2023-03-04T22:27:17.705Z,97594.84
2023-03-04T22:30:19.677Z,97584.94
2023-03-04T22:33:21.201Z,97587.34
2023-03-04T22:36:22.612Z,97589.72
2023-03-04T22:39:23.949Z,97587.41
2023-03-04T22:42:25.393Z,97579.16
2023-03-04T22:45:29.479Z,97575.91
2023-03-04T22:48:31.219Z,97584.03
2023-03-04T22:51:32.594Z,97583.69
2023-03-04T22:54:33.982Z,97585.56
2023-03-04T22:57:38.659Z,97581.63
2023-03-04T23:00:40.114Z,97578.94
2023-03-04T23:03:42.451Z,97580.19
2023-03-04T23:06:43.780Z,97572.03
2023-03-04T23:09:45.196Z,97569.75
2023-03-04T23:12:46.602Z,97579.72
2023-03-04T23:15:48.022Z,97576.78
2023-03-04T23:18:49.995Z,97578.31
2023-03-04T23:21:52.206Z,97573.72
2023-03-04T23:24:53.629Z,97562.59
2023-03-04T23:27:55.047Z,97575.72
2023-03-04T23:30:56.460Z,97563.75
2023-03-04T23:33:58.633Z,97578.13
2023-03-04T23:37:00.253Z,97572.41
2023-03-04T23:40:01.799Z,97571.63
2023-03-04T23:43:03.423Z,97571.88
2023-03-04T23:46:04.931Z,97557.34
2023-03-04T23:49:06.897Z,97562.69
2023-03-04T23:52:08.297Z,97559.47
2023-03-04T23:55:15.416Z,97557.41
2023-03-04T23:58:16.829Z,97550.44
